Weather History for KHFJ - October, 2012

Change the Weather History Date:

Friday, October 5, 2012

  Actual Average (KJLN) Record (KJLN)
Temperature  
Mean Temperature 46 °F 63 °F  
Max Temperature 55 °F 75 °F 91 °F (1963)
Min Temperature 35 °F 51 °F 35 °F (1988)
Degree Days  
Heating Degree Days 19 5  
Month to date heating degree days 21  
Since 1 July heating degree days 63  
Cooling Degree Days 0 3  
Month to date cooling degree days 15  
Year to date cooling degree days 1657  
Moisture  
Dew Point 42 °F    
Average Humidity 86    
Maximum Humidity 100    
Minimum Humidity 71    
Precipitation  
Precipitation 0.03 in 0.13 in 2.25 in (1976)
Month to date precipitation 0.67  
Year to date precipitation 36.59  
Sea Level Pressure  
Sea Level Pressure 30.17 in    
Wind  
Wind Speed 9 mph (NNE)    
Max Wind Speed 18 mph    
Max Gust Speed 25 mph    
Visibility 9 miles    
Events Rain , Thunderstorm    
T = Trace of Precipitation, MM = Missing Value Source: NWS Daily Summary

Daily Weather History Graph

Daily Weather History Graph

Search for Another Location

Airport or City:

Trip Planner

Search our weather history database for the weather conditions in past years. The results will help you decide how hot, cold, wet, or windy it might be!

Date:

Astronomy

Oct. 05, 2012 Rise Set
Actual Time 7:15 AM CDT 6:52 PM CDT
Civil Twilight 6:49 AM CDT 7:18 PM CDT
Nautical Twilight 6:19 AM CDT 7:48 PM CDT
Astronomical Twilight 5:49 AM CDT 8:18 PM CDT
Moon 10:23 PM CDT (10/5) 12:16 PM CDT (10/5)
Length of Visible Light 12h 29m
Length of Day
11h 37m
Waning Gibbous, 74% of the Moon is Illuminated
Oct 5
Waning Gibbous
Oct 8
Last Quarter
Oct 15
New
Oct 21
First Quarter
Oct 29
Full

Hourly Weather History & Observations

Time (CDT) Temp. Windchill Dew Point Humidity Pressure Visibility Wind Dir Wind Speed Gust Speed Precip Events Conditions
12:15 AM 55.4 °F - 50.0 °F 82% 30.15 in 10.0 mi North 9.2 mph - N/A   Overcast
12:35 AM 55.4 °F - 48.2 °F 77% 30.16 in 10.0 mi North 8.1 mph - N/A   Overcast
12:55 AM 53.6 °F - 46.4 °F 77% 30.15 in 10.0 mi North 8.1 mph - N/A   Overcast
1:15 AM 53.6 °F - 46.4 °F 77% 30.15 in 10.0 mi North 10.4 mph - N/A   Overcast
1:35 AM 51.8 °F - 46.4 °F 82% 30.15 in 10.0 mi North 9.2 mph - N/A   Overcast
1:55 AM 51.8 °F - 44.6 °F 76% 30.15 in 10.0 mi North 11.5 mph - N/A   Overcast
2:15 AM 51.8 °F - 44.6 °F 76% 30.15 in 10.0 mi NNE 12.7 mph 17.3 mph N/A   Overcast
2:35 AM 51.8 °F - 44.6 °F 76% 30.16 in 10.0 mi NNE 11.5 mph 17.3 mph N/A   Overcast
2:55 AM 51.8 °F - 44.6 °F 76% 30.17 in 10.0 mi North 13.8 mph - N/A   Overcast
3:15 AM 51.8 °F - 44.6 °F 76% 30.16 in 10.0 mi North 11.5 mph 18.4 mph N/A   Overcast
3:35 AM 51.8 °F - 42.8 °F 71% 30.16 in 10.0 mi North 10.4 mph 17.3 mph N/A   Overcast
3:55 AM 51.8 °F - 42.8 °F 71% 30.15 in 10.0 mi NNE 8.1 mph 17.3 mph N/A   Overcast
4:15 AM 50.0 °F - 42.8 °F 76% 30.15 in 10.0 mi NNE 5.8 mph - N/A   Overcast
4:35 AM 50.0 °F - 42.8 °F 76% 30.15 in 10.0 mi NNE 8.1 mph - N/A   Overcast
4:55 AM 50.0 °F - 42.8 °F 76% 30.15 in 10.0 mi NNE 8.1 mph - N/A   Overcast
5:15 AM 50.0 °F - 42.8 °F 76% 30.14 in 10.0 mi NNE 8.1 mph - N/A   Overcast
5:35 AM 50.0 °F - 42.8 °F 76% 30.14 in 10.0 mi NE 8.1 mph - N/A   Overcast
5:55 AM 50.0 °F - 41.0 °F 71% 30.14 in 10.0 mi NNE 11.5 mph - N/A   Overcast
6:15 AM 50.0 °F - 41.0 °F 71% 30.15 in 10.0 mi NE 6.9 mph - N/A Rain , Thunderstorm Thunderstorms and Rain
6:35 AM 50.0 °F - 42.8 °F 76% 30.14 in 10.0 mi NNE 10.4 mph - 0.01 in Thunderstorm Thunderstorm
6:55 AM 50.0 °F - 42.8 °F 76% 30.15 in 10.0 mi North 9.2 mph - 0.01 in Thunderstorm Overcast
7:15 AM 48.2 °F - 42.8 °F 82% 30.14 in 10.0 mi NE 9.2 mph - N/A   Overcast
7:35 AM 48.2 °F - 44.6 °F 87% 30.15 in 10.0 mi North 9.2 mph - N/A Thunderstorm Overcast
7:55 AM 48.2 °F - 44.6 °F 87% 30.15 in 10.0 mi NNE 8.1 mph - N/A   Overcast
8:15 AM 48.2 °F - 44.6 °F 87% 30.15 in 10.0 mi North 9.2 mph - N/A   Overcast
8:35 AM 48.2 °F - 44.6 °F 87% 30.15 in 10.0 mi NNE 6.9 mph 17.3 mph N/A   Overcast
8:55 AM 48.2 °F - 44.6 °F 87% 30.15 in 10.0 mi NNE 11.5 mph 16.1 mph N/A   Overcast
9:15 AM 46.4 °F 42.4 °F 44.6 °F 93% 30.15 in 10.0 mi NNE 8.1 mph - N/A Thunderstorm Overcast
9:35 AM 46.4 °F 42.9 °F 44.6 °F 93% 30.16 in 7.0 mi NNE 6.9 mph - N/A   Drizzle
9:55 AM 46.4 °F 42.9 °F 44.6 °F 93% 30.15 in 4.0 mi NNE 6.9 mph 16.1 mph N/A   Drizzle
10:15 AM 46.4 °F 41.1 °F 44.6 °F 93% 30.15 in 5.0 mi NNE 11.5 mph 20.7 mph N/A Rain Light Rain
10:35 AM 46.4 °F 42.4 °F 46.4 °F 100% 30.15 in 5.0 mi NE 8.1 mph - N/A   Overcast
10:55 AM 46.4 °F 43.5 °F 46.4 °F 100% 30.14 in 5.0 mi NNE 5.8 mph - N/A   Drizzle
11:35 AM 46.4 °F 41.9 °F 44.6 °F 93% 30.13 in 7.0 mi NE 9.2 mph 18.4 mph N/A   Drizzle
12:15 PM 46.4 °F 42.9 °F 46.4 °F 100% 30.14 in 7.0 mi NNE 6.9 mph - N/A   Overcast
12:35 PM 46.4 °F 41.9 °F 46.4 °F 100% 30.15 in 7.0 mi NNE 9.2 mph - N/A   Overcast
12:55 PM 46.4 °F 40.4 °F 44.6 °F 93% 30.15 in 5.0 mi NNE 13.8 mph 18.4 mph N/A Rain Rain
1:35 PM 46.4 °F 41.5 °F 44.6 °F 93% 30.15 in 4.0 mi NNE 10.4 mph 16.1 mph N/A Rain Light Rain
1:55 PM 46.4 °F 40.4 °F 44.6 °F 93% 30.16 in 5.0 mi North 13.8 mph - 0.01 in Rain Light Rain
2:15 PM 46.4 °F 41.1 °F 44.6 °F 93% 30.14 in 4.0 mi NNE 11.5 mph - N/A Rain Light Rain
2:35 PM 46.4 °F 41.5 °F 44.6 °F 93% 30.15 in 4.0 mi North 10.4 mph 17.3 mph N/A Rain Light Rain
2:55 PM 46.4 °F 40.4 °F 44.6 °F 93% 30.15 in 7.0 mi North 13.8 mph 18.4 mph N/A   Overcast
3:15 PM 46.4 °F 40.7 °F 44.6 °F 93% 30.15 in 4.0 mi North 12.7 mph 20.7 mph N/A Rain Rain
3:35 PM 44.6 °F 36.9 °F 42.8 °F 93% 30.18 in 3.0 mi North 18.4 mph 25.3 mph 0.01 in Rain Light Rain
3:55 PM 44.6 °F 38.1 °F 42.8 °F 93% 30.18 in 10.0 mi North 13.8 mph 23.0 mph 0.01 in   Overcast
4:15 PM 44.6 °F 38.8 °F 42.8 °F 93% 30.17 in 10.0 mi NNE 11.5 mph 18.4 mph N/A   Overcast
4:35 PM 44.6 °F 37.8 °F 41.0 °F 87% 30.18 in 10.0 mi North 15.0 mph - N/A   Overcast
4:55 PM 44.6 °F 38.4 °F 41.0 °F 87% 30.18 in 10.0 mi North 12.7 mph 18.4 mph N/A   Overcast
5:15 PM 44.6 °F 38.8 °F 41.0 °F 87% 30.18 in 10.0 mi NNE 11.5 mph 16.1 mph N/A   Overcast
5:35 PM 42.8 °F 36.2 °F 41.0 °F 93% 30.18 in 10.0 mi North 12.7 mph 20.7 mph N/A   Overcast
5:55 PM 44.6 °F 38.8 °F 41.0 °F 87% 30.19 in 10.0 mi North 11.5 mph 17.3 mph N/A   Overcast
6:15 PM 42.8 °F 38.0 °F 39.2 °F 87% 30.18 in 10.0 mi NNE 8.1 mph - N/A   Overcast
6:35 PM 42.8 °F 37.5 °F 39.2 °F 87% 30.19 in 10.0 mi NNE 9.2 mph - N/A   Mostly Cloudy
6:55 PM 42.8 °F 38.0 °F 37.4 °F 81% 30.20 in 10.0 mi NNE 8.1 mph 17.3 mph N/A   Scattered Clouds
7:15 PM 42.8 °F 37.5 °F 37.4 °F 81% 30.21 in 10.0 mi NNE 9.2 mph - N/A   Clear
7:35 PM 42.8 °F 38.0 °F 37.4 °F 81% 30.22 in 10.0 mi NNE 8.1 mph - N/A   Mostly Cloudy
7:55 PM 41.0 °F 39.0 °F 37.4 °F 87% 30.22 in 10.0 mi NNE 3.5 mph - N/A   Scattered Clouds
8:15 PM 41.0 °F 38.0 °F 37.4 °F 87% 30.23 in 10.0 mi NNE 4.6 mph - N/A   Scattered Clouds
8:35 PM 41.0 °F 38.0 °F 37.4 °F 87% 30.23 in 10.0 mi NNE 4.6 mph - N/A   Clear
8:55 PM 41.0 °F 38.0 °F 37.4 °F 87% 30.25 in 10.0 mi NNE 4.6 mph - N/A   Clear
9:15 PM 39.2 °F - 37.4 °F 93% 30.25 in 10.0 mi Calm Calm - N/A   Clear
9:35 PM 39.2 °F 37.0 °F 35.6 °F 87% 30.24 in 10.0 mi NE 3.5 mph - N/A   Clear
9:55 PM 37.4 °F 34.9 °F 35.6 °F 93% 30.24 in 10.0 mi ENE 3.5 mph - N/A   Clear
10:35 PM 37.4 °F 33.8 °F 35.6 °F 93% 30.24 in 10.0 mi NNE 4.6 mph - N/A   Clear
10:55 PM 37.4 °F 33.8 °F 35.6 °F 93% 30.24 in 10.0 mi NNE 4.6 mph - N/A   Clear
11:15 PM 37.4 °F 33.8 °F 35.6 °F 93% 30.25 in 10.0 mi NNE 4.6 mph - N/A   Clear
11:35 PM 37.4 °F 32.1 °F 35.6 °F 93% 30.25 in 10.0 mi North 6.9 mph - N/A   Clear
11:55 PM 35.6 °F 30.7 °F 35.6 °F 100% 30.25 in 10.0 mi North 5.8 mph - N/A   Clear